Time;durP1;ratioP1;P1;durP2;ratioP2;P2;SDS_P1;SDS_P2;PMS_P1;PMS_P2;Temp;Humidity;BMP_temperature;BMP_pressure;BME280_temperature;BME280_humidity;BME280_pressure;Samples;Min_cycle;Max_cycle;Signal;HPM_P1;HPM_P2
2022/04/10 00:01:49;;;;;;;10.77;1.42;;;3.10;99.90;;;;;;5023404;28;20431;-73
2022/04/10 00:04:15;;;;;;;3.72;0.60;;;3.10;99.90;;;;;;5023255;28;20161;-73
2022/04/10 00:06:41;;;;;;;12.32;1.05;;;3.10;99.90;;;;;;5004353;28;20027;-73
2022/04/10 00:09:06;;;;;;;3.13;1.48;;;3.10;99.90;;;;;;5023252;28;20223;-71
2022/04/10 00:11:32;;;;;;;1.23;0.68;;;3.10;99.90;;;;;;5022573;28;20034;-72
2022/04/10 00:13:58;;;;;;;11.15;0.80;;;3.10;99.90;;;;;;5022412;28;20041;-72
2022/04/10 00:16:24;;;;;;;2.00;1.05;;;3.20;99.90;;;;;;5023144;28;20033;-74
2022/04/10 00:18:51;;;;;;;4.55;1.48;;;3.20;99.90;;;;;;5023023;28;20052;-74
2022/04/10 00:21:17;;;;;;;3.72;0.73;;;3.10;99.90;;;;;;5024193;28;20057;-74
2022/04/10 00:23:43;;;;;;;8.90;1.20;;;3.20;99.90;;;;;;5008636;28;20502;-74
2022/04/10 00:26:11;;;;;;;10.18;1.60;;;3.10;99.90;;;;;;5026365;28;20478;-74
2022/04/10 00:28:36;;;;;;;6.53;1.63;;;3.00;99.90;;;;;;5026000;28;20037;-74
2022/04/10 00:31:02;;;;;;;1.85;1.13;;;3.10;99.90;;;;;;5026749;28;20029;-74
2022/04/10 00:33:28;;;;;;;9.15;1.92;;;3.00;99.90;;;;;;5026367;28;20022;-73
2022/04/10 00:35:54;;;;;;;4.28;1.42;;;3.00;99.90;;;;;;5008266;28;20034;-75
2022/04/10 00:38:20;;;;;;;1.73;0.98;;;3.00;99.90;;;;;;5026312;28;20057;-74
2022/04/10 00:40:46;;;;;;;6.40;1.63;;;3.00;99.90;;;;;;5025779;28;20022;-75
2022/04/10 00:43:11;;;;;;;14.07;1.65;;;3.00;99.90;;;;;;5025705;28;20049;-75
2022/04/10 00:45:37;;;;;;;4.93;1.58;;;3.00;99.90;;;;;;5008103;28;20076;-74
2022/04/10 00:48:03;;;;;;;3.45;1.98;;;3.00;99.90;;;;;;4999367;28;20038;-75
2022/04/10 00:50:28;;;;;;;3.15;1.45;;;2.90;99.90;;;;;;5023525;28;20026;-74
2022/04/10 00:52:59;;;;;;;3.15;1.13;;;3.00;99.90;;;;;;5016690;28;20029;-75
2022/04/10 00:55:26;;;;;;;2.50;1.10;;;2.90;99.90;;;;;;5025267;28;20513;-74
2022/04/10 00:57:52;;;;;;;5.25;1.85;;;3.00;99.90;;;;;;5026118;28;20026;-73
2022/04/10 01:00:17;;;;;;;7.65;2.75;;;3.00;99.90;;;;;;5008064;28;20064;-73
2022/04/10 01:02:43;;;;;;;7.07;1.60;;;3.10;99.90;;;;;;5025721;28;20090;-73
2022/04/10 01:05:10;;;;;;;3.22;1.15;;;3.00;99.90;;;;;;5026155;28;20030;-74
2022/04/10 01:07:35;;;;;;;9.05;1.70;;;3.00;99.90;;;;;;5007245;28;20406;-74
2022/04/10 01:10:04;;;;;;;5.70;1.77;;;3.00;99.90;;;;;;5025624;28;20022;-73
2022/04/10 01:12:32;;;;;;;2.92;1.23;;;3.00;99.90;;;;;;5025920;28;20033;-73
2022/04/10 01:14:59;;;;;;;1.75;0.85;;;3.00;99.90;;;;;;5025118;28;20094;-72
2022/04/10 01:17:29;;;;;;;2.50;1.67;;;3.00;99.90;;;;;;5025549;28;20092;-73
2022/04/10 01:19:55;;;;;;;12.40;1.80;;;2.90;99.90;;;;;;5025397;28;20041;-73
2022/04/10 01:22:34;;;;;;;14.82;1.90;;;2.90;99.90;;;;;;5025164;28;20036;-73
2022/04/10 01:25:04;;;;;;;3.95;1.88;;;2.90;99.90;;;;;;5022105;28;20437;-72
2022/04/10 01:27:35;;;;;;;4.10;1.63;;;2.90;99.90;;;;;;5025364;28;20026;-74
2022/04/10 01:30:01;;;;;;;5.95;1.60;;;2.90;99.90;;;;;;5024937;28;20474;-74
2022/04/10 01:32:26;;;;;;;6.82;1.55;;;2.90;99.90;;;;;;5024882;28;20061;-74
2022/04/10 01:34:52;;;;;;;8.02;1.23;;;2.80;99.90;;;;;;5025491;28;20025;-74
2022/04/10 01:37:19;;;;;;;12.75;1.75;;;2.80;99.90;;;;;;5006812;28;20126;-72
2022/04/10 01:39:50;;;;;;;8.27;1.95;;;2.80;99.90;;;;;;5024594;28;20635;-72
2022/04/10 01:42:16;;;;;;;5.95;2.00;;;2.80;99.90;;;;;;5024656;28;20025;-72
2022/04/10 01:44:42;;;;;;;3.42;1.67;;;2.80;99.90;;;;;;5024813;28;20117;-74
2022/04/10 01:47:09;;;;;;;9.48;1.27;;;2.80;99.90;;;;;;5025271;28;20030;-72
2022/04/10 01:49:34;;;;;;;8.23;1.15;;;2.80;99.90;;;;;;5006921;28;20042;-73
2022/04/10 01:52:00;;;;;;;7.60;1.25;;;2.90;99.90;;;;;;5015519;28;20037;-71
2022/04/10 01:54:25;;;;;;;5.47;2.20;;;2.90;99.90;;;;;;5024913;28;20394;-73
2022/04/10 01:56:51;;;;;;;4.50;1.50;;;3.00;99.90;;;;;;5015140;28;20093;-73
2022/04/10 01:59:16;;;;;;;3.38;1.55;;;3.00;99.90;;;;;;5024867;28;20026;-74
2022/04/10 02:01:42;;;;;;;3.45;1.40;;;3.00;99.90;;;;;;5006220;28;20034;-74
2022/04/10 02:04:08;;;;;;;7.28;1.27;;;2.90;99.90;;;;;;5006772;28;20472;-74
2022/04/10 02:06:37;;;;;;;4.50;0.65;;;2.90;99.90;;;;;;5024049;28;20040;-75
2022/04/10 02:09:06;;;;;;;5.32;1.38;;;2.80;99.90;;;;;;5002109;28;20049;-74
2022/04/10 02:11:32;;;;;;;8.98;1.55;;;2.80;99.90;;;;;;5021810;28;20533;-75
2022/04/10 02:13:58;;;;;;;7.13;1.80;;;2.80;99.90;;;;;;5024721;28;20068;-73
2022/04/10 02:16:28;;;;;;;3.88;1.15;;;2.80;99.90;;;;;;5024571;28;20113;-74
2022/04/10 02:18:54;;;;;;;4.90;1.25;;;2.80;99.90;;;;;;5020098;28;20075;-74
2022/04/10 02:21:19;;;;;;;8.00;1.48;;;2.80;99.90;;;;;;5006477;28;20029;-75
2022/04/10 02:23:45;;;;;;;6.10;1.20;;;2.70;99.90;;;;;;5006133;28;20118;-72
2022/04/10 02:26:14;;;;;;;6.47;1.17;;;2.70;99.90;;;;;;5024232;28;20030;-74
2022/04/10 02:28:40;;;;;;;6.68;1.45;;;2.70;99.90;;;;;;5024260;28;20053;-74
2022/04/10 02:31:06;;;;;;;4.32;1.30;;;2.80;99.90;;;;;;5024467;28;20030;-73
2022/04/10 02:33:33;;;;;;;2.00;1.10;;;2.80;99.90;;;;;;5024145;28;20080;-73
2022/04/10 02:35:59;;;;;;;16.95;1.45;;;2.80;99.90;;;;;;5023687;28;20052;-74
2022/04/10 02:38:25;;;;;;;11.05;1.92;;;2.80;99.90;;;;;;5023868;28;20026;-74
2022/04/10 02:40:50;;;;;;;3.63;1.15;;;2.80;99.90;;;;;;5024006;28;20033;-74
2022/04/10 02:43:16;;;;;;;11.77;1.90;;;2.90;99.90;;;;;;5023700;28;20029;-75
2022/04/10 02:45:42;;;;;;;2.55;1.00;;;2.90;99.90;;;;;;5005545;28;20037;-74
2022/04/10 02:48:09;;;;;;;8.60;2.63;;;2.80;99.90;;;;;;5005982;28;20105;-75
2022/04/10 02:50:36;;;;;;;2.90;1.33;;;2.90;99.90;;;;;;5024377;28;20474;-75
2022/04/10 02:53:03;;;;;;;12.80;2.50;;;2.90;99.90;;;;;;5023165;28;20056;-75
2022/04/10 02:55:29;;;;;;;5.80;1.33;;;2.80;99.90;;;;;;5023973;28;20040;-71
2022/04/10 02:57:54;;;;;;;7.88;1.63;;;2.90;99.90;;;;;;5023798;28;20113;-74
2022/04/10 03:00:20;;;;;;;7.43;2.22;;;2.80;99.90;;;;;;5022863;28;20026;-75
2022/04/10 03:02:46;;;;;;;9.93;1.85;;;2.80;99.90;;;;;;5006932;28;20121;-74
2022/04/10 03:05:12;;;;;;;8.57;2.10;;;2.80;99.90;;;;;;5023351;28;20949;-75
2022/04/10 03:07:38;;;;;;;9.32;2.38;;;2.80;99.90;;;;;;4996078;28;20038;-73
2022/04/10 03:10:05;;;;;;;3.25;1.73;;;2.80;99.90;;;;;;5023593;28;20038;-74
2022/04/10 03:12:31;;;;;;;7.40;1.88;;;2.80;99.90;;;;;;4997272;28;20165;-75
2022/04/10 03:14:57;;;;;;;9.95;2.65;;;2.80;99.90;;;;;;4997589;28;20805;-71
2022/04/10 03:17:22;;;;;;;5.13;1.50;;;2.80;99.90;;;;;;5020232;28;20037;-74
2022/04/10 03:19:48;;;;;;;4.63;1.33;;;2.80;99.90;;;;;;5023301;28;20045;-74
2022/04/10 03:22:17;;;;;;;6.97;2.25;;;2.80;99.90;;;;;;5001311;28;20076;-74
2022/04/10 03:24:43;;;;;;;8.73;2.10;;;2.80;99.90;;;;;;5022949;28;20217;-75
2022/04/10 03:27:09;;;;;;;14.65;2.35;;;2.80;99.90;;;;;;5005637;28;20057;-74
2022/04/10 03:29:34;;;;;;;6.40;1.52;;;2.80;99.90;;;;;;5023508;28;20034;-75
2022/04/10 03:32:07;;;;;;;2.78;1.23;;;2.80;99.90;;;;;;5005136;28;20026;-75
2022/04/10 03:34:32;;;;;;;4.50;1.35;;;2.80;99.90;;;;;;5005220;28;20097;-76
2022/04/10 03:36:58;;;;;;;8.23;1.30;;;2.80;99.90;;;;;;5023541;28;20037;-74
2022/04/10 03:39:24;;;;;;;11.20;1.88;;;2.70;99.90;;;;;;5023466;28;20037;-75
2022/04/10 03:41:49;;;;;;;6.88;2.47;;;2.70;99.90;;;;;;5015170;28;20034;-73
2022/04/10 03:44:18;;;;;;;8.35;1.73;;;2.70;99.90;;;;;;5023278;28;20045;-74
2022/04/10 03:46:43;;;;;;;8.38;2.65;;;2.70;99.90;;;;;;4996859;28;20042;-73
2022/04/10 03:49:09;;;;;;;3.78;1.38;;;2.60;99.90;;;;;;4996740;28;20390;-76
2022/04/10 03:51:47;;;;;;;10.10;3.22;;;2.60;99.90;;;;;;5021305;28;20033;-76
2022/04/10 03:54:13;;;;;;;3.58;1.63;;;2.60;99.90;;;;;;5023353;28;20085;-73
2022/04/10 03:56:38;;;;;;;6.00;2.00;;;2.50;99.90;;;;;;5000165;28;20050;-75
2022/04/10 03:59:04;;;;;;;3.53;2.50;;;2.50;99.90;;;;;;5027156;28;20026;-74
2022/04/10 04:01:30;;;;;;;23.17;4.15;;;2.50;99.90;;;;;;5000341;28;20022;-73
2022/04/10 04:03:55;;;;;;;8.15;2.35;;;2.40;99.90;;;;;;4999941;28;20030;-74
2022/04/10 04:06:21;;;;;;;10.55;2.58;;;2.50;99.90;;;;;;5022765;28;20026;-72
2022/04/10 04:08:47;;;;;;;13.43;2.40;;;2.40;99.90;;;;;;5026200;28;20588;-74
2022/04/10 04:11:16;;;;;;;17.25;2.83;;;2.40;99.90;;;;;;5026452;28;20030;-75
2022/04/10 04:13:42;;;;;;;15.85;2.95;;;2.30;99.90;;;;;;5026989;28;20021;-72
2022/04/10 04:16:08;;;;;;;4.68;1.90;;;2.40;99.90;;;;;;5026387;28;20030;-73
2022/04/10 04:18:35;;;;;;;8.15;1.98;;;2.40;99.90;;;;;;5006831;28;20114;-74
2022/04/10 04:21:01;;;;;;;9.25;3.05;;;2.30;99.90;;;;;;5005510;28;20029;-73
2022/04/10 04:23:27;;;;;;;6.78;2.45;;;2.30;99.90;;;;;;5008554;28;20030;-73
2022/04/10 04:25:53;;;;;;;15.90;3.22;;;2.40;99.90;;;;;;5025902;28;20054;-76
2022/04/10 04:28:23;;;;;;;11.63;1.70;;;2.40;99.90;;;;;;5008123;28;20042;-71
2022/04/10 04:30:48;;;;;;;9.88;2.13;;;2.40;99.90;;;;;;5026295;28;20029;-74
2022/04/10 04:33:16;;;;;;;16.40;2.65;;;2.50;99.90;;;;;;5007225;28;20021;-72
2022/04/10 04:35:42;;;;;;;8.88;2.45;;;2.40;99.90;;;;;;5008232;28;20030;-73
2022/04/10 04:38:08;;;;;;;16.63;2.58;;;2.40;99.90;;;;;;5026371;28;20609;-72
2022/04/10 04:40:33;;;;;;;4.10;2.15;;;2.40;99.90;;;;;;5026215;28;20026;-73
2022/04/10 04:42:59;;;;;;;13.07;2.47;;;2.40;99.90;;;;;;5026528;28;20064;-74
2022/04/10 04:45:24;;;;;;;11.25;2.13;;;2.40;99.90;;;;;;5026298;28;20030;-74
2022/04/10 04:47:50;;;;;;;10.85;3.55;;;2.40;99.90;;;;;;5025900;28;20091;-74
2022/04/10 04:50:16;;;;;;;15.88;2.45;;;2.40;99.90;;;;;;5026288;28;20093;-74
2022/04/10 04:52:41;;;;;;;4.35;1.95;;;2.40;99.90;;;;;;5026149;28;20032;-75
2022/04/10 04:55:08;;;;;;;5.60;2.47;;;2.40;99.90;;;;;;5025937;28;20033;-74
2022/04/10 04:57:41;;;;;;;6.97;2.22;;;2.30;99.90;;;;;;5025960;28;20049;-75
2022/04/10 05:00:08;;;;;;;2.72;1.73;;;2.30;99.90;;;;;;5003522;28;20034;-73
2022/04/10 05:02:34;;;;;;;5.70;2.28;;;2.30;99.90;;;;;;5023941;28;20033;-72
2022/04/10 05:04:59;;;;;;;8.18;2.85;;;2.30;99.90;;;;;;5000096;28;20052;-71
2022/04/10 05:07:25;;;;;;;11.55;2.38;;;2.30;99.90;;;;;;5021402;28;20071;-73
2022/04/10 05:09:51;;;;;;;14.52;2.25;;;2.40;99.90;;;;;;5023235;28;20141;-71
2022/04/10 05:12:17;;;;;;;7.30;2.30;;;2.40;99.90;;;;;;5024332;28;20084;-74
2022/04/10 05:14:43;;;;;;;8.70;2.45;;;2.40;99.90;;;;;;5025192;28;20030;-74
2022/04/10 05:17:09;;;;;;;3.17;2.05;;;2.40;99.90;;;;;;5025299;28;20052;-74
2022/04/10 05:19:34;;;;;;;8.45;2.80;;;2.40;99.90;;;;;;5024940;28;20034;-73
2022/04/10 05:22:00;;;;;;;12.82;3.13;;;2.40;99.90;;;;;;5020543;28;20038;-72
2022/04/10 05:24:25;;;;;;;11.95;2.10;;;2.40;99.90;;;;;;5025355;28;20085;-72
2022/04/10 05:26:51;;;;;;;9.93;2.78;;;2.50;99.90;;;;;;5024787;28;20044;-74
2022/04/10 05:29:16;;;;;;;11.55;1.42;;;2.50;99.90;;;;;;5025185;28;20038;-73
2022/04/10 05:31:42;;;;;;;5.30;2.05;;;2.50;99.90;;;;;;5025520;28;20030;-73
2022/04/10 05:34:07;;;;;;;8.68;1.70;;;2.50;99.90;;;;;;5025517;28;20025;-72
2022/04/10 05:36:33;;;;;;;4.63;1.80;;;2.60;99.90;;;;;;5024538;28;20037;-71
2022/04/10 05:38:59;;;;;;;8.82;1.95;;;2.60;99.90;;;;;;5025322;28;20026;-71
2022/04/10 05:41:24;;;;;;;2.22;1.40;;;2.60;99.90;;;;;;5025086;28;20064;-72
2022/04/10 05:43:50;;;;;;;17.02;1.52;;;2.60;99.90;;;;;;4999668;28;20025;-72
2022/04/10 05:46:16;;;;;;;3.95;1.70;;;2.60;99.90;;;;;;5020778;28;20048;-72
2022/04/10 05:48:41;;;;;;;7.90;2.08;;;2.70;99.90;;;;;;5024292;28;20037;-71
2022/04/10 05:51:08;;;;;;;8.02;2.17;;;2.70;99.90;;;;;;5025081;28;20076;-72
2022/04/10 05:53:33;;;;;;;15.13;2.15;;;2.70;99.90;;;;;;5024569;28;20030;-69
2022/04/10 05:55:59;;;;;;;7.22;1.15;;;2.80;99.90;;;;;;5023814;28;20044;-73
2022/04/10 05:58:25;;;;;;;7.43;2.03;;;2.70;99.90;;;;;;5024642;28;20025;-71
2022/04/10 06:00:51;;;;;;;3.40;1.42;;;2.80;99.90;;;;;;5022440;28;20085;-70
2022/04/10 06:03:20;;;;;;;3.45;0.93;;;2.90;99.90;;;;;;5024024;28;20053;-72
2022/04/10 06:05:46;;;;;;;10.57;2.03;;;2.90;99.90;;;;;;5023207;28;20030;-71
2022/04/10 06:08:12;;;;;;;6.03;1.77;;;3.00;99.90;;;;;;5006519;28;20045;-72
2022/04/10 06:10:38;;;;;;;8.95;1.50;;;3.00;99.90;;;;;;5024737;28;20033;-71
2022/04/10 06:13:11;;;;;;;9.07;1.75;;;3.10;99.90;;;;;;5024279;28;20025;-72
2022/04/10 06:15:37;;;;;;;2.67;1.40;;;3.10;99.90;;;;;;5024560;28;20033;-73
2022/04/10 06:18:03;;;;;;;2.15;1.13;;;3.20;99.90;;;;;;5022399;28;20045;-73
2022/04/10 06:20:29;;;;;;;9.85;1.40;;;3.30;99.90;;;;;;5006463;28;20041;-71
2022/04/10 06:22:54;;;;;;;8.65;1.48;;;3.30;99.90;;;;;;5024039;28;20068;-71
2022/04/10 06:25:20;;;;;;;9.63;2.25;;;3.40;99.90;;;;;;5024112;28;20061;-71
2022/04/10 06:27:46;;;;;;;5.13;1.50;;;3.50;99.90;;;;;;5024462;28;20064;-70
2022/04/10 06:30:12;;;;;;;2.90;0.93;;;3.60;99.90;;;;;;5024290;28;20040;-73
2022/04/10 06:32:37;;;;;;;5.40;1.20;;;3.70;99.90;;;;;;5021764;28;20045;-71
2022/04/10 06:35:03;;;;;;;12.13;1.10;;;3.80;99.90;;;;;;5005952;28;20034;-73
2022/04/10 06:37:29;;;;;;;9.93;1.80;;;3.80;99.90;;;;;;5006107;28;20018;-71
2022/04/10 06:39:55;;;;;;;1.40;0.85;;;4.00;99.90;;;;;;5024112;28;20044;-71
2022/04/10 06:42:20;;;;;;;5.50;1.33;;;4.00;99.90;;;;;;5024238;28;20106;-70
2022/04/10 06:44:46;;;;;;;6.88;1.65;;;4.00;99.90;;;;;;5023898;28;20026;-70
2022/04/10 06:47:12;;;;;;;7.55;1.50;;;4.00;99.90;;;;;;5023118;28;20057;-71
2022/04/10 06:49:37;;;;;;;2.85;1.00;;;4.00;99.90;;;;;;5022710;28;20045;-71
2022/04/10 06:52:04;;;;;;;11.68;1.42;;;4.00;99.90;;;;;;5021406;28;20029;-73
2022/04/10 06:54:29;;;;;;;6.93;1.83;;;4.10;99.90;;;;;;5023320;28;20022;-70
2022/04/10 06:56:55;;;;;;;0.75;0.75;;;4.20;99.90;;;;;;5021796;28;20041;-70
2022/04/10 06:59:21;;;;;;;4.78;1.98;;;4.30;99.90;;;;;;5021920;28;20018;-71
2022/04/10 07:01:46;;;;;;;11.85;2.63;;;4.40;99.90;;;;;;5022640;28;20033;-71
2022/04/10 07:04:13;;;;;;;17.88;2.00;;;4.50;99.90;;;;;;5023837;28;20030;-71
2022/04/10 07:06:39;;;;;;;6.78;1.98;;;4.60;99.90;;;;;;5023222;28;20478;-73
2022/04/10 07:09:05;;;;;;;1.85;0.85;;;4.70;99.90;;;;;;5024231;28;20044;-73
2022/04/10 07:11:34;;;;;;;3.90;1.13;;;4.70;99.90;;;;;;5023668;28;20037;-71
2022/04/10 07:14:00;;;;;;;2.92;1.05;;;4.70;99.90;;;;;;5004334;28;20033;-71
2022/04/10 07:16:26;;;;;;;19.63;1.67;;;4.80;99.90;;;;;;5021185;28;20730;-70
2022/04/10 07:18:51;;;;;;;12.98;1.38;;;4.90;99.90;;;;;;5021832;28;20044;-71
2022/04/10 07:23:41;;;;;;;18.63;1.95;;;5.10;99.90;;;;;;5022852;28;20042;-72
2022/04/10 07:24:03;;;;;;;3.65;1.15;;;5.10;99.90;;;;;;5021525;28;20088;-72
2022/04/10 07:26:29;;;;;;;9.23;1.40;;;5.30;99.90;;;;;;5023092;28;20433;-72
2022/04/10 07:28:55;;;;;;;1.63;0.88;;;5.40;99.90;;;;;;5023681;28;20465;-71
2022/04/10 07:31:20;;;;;;;3.03;1.52;;;5.30;99.90;;;;;;5026963;28;20047;-72
2022/04/10 07:33:46;;;;;;;7.15;1.13;;;5.20;99.90;;;;;;5027269;28;20395;-74
2022/04/10 07:36:12;;;;;;;0.90;0.63;;;5.10;99.90;;;;;;5025762;28;20026;-72
2022/04/10 07:38:38;;;;;;;8.88;1.10;;;5.00;99.90;;;;;;5026967;28;20093;-72
2022/04/10 07:41:05;;;;;;;7.38;1.42;;;4.90;99.90;;;;;;5024587;28;20041;-70
2022/04/10 07:43:31;;;;;;;8.07;1.63;;;5.10;99.90;;;;;;5023985;28;20177;-72
2022/04/10 07:48:42;;;;;;;4.85;1.48;;;5.30;99.90;;;;;;5023414;28;20120;-73
2022/04/10 07:51:08;;;;;;;4.07;0.93;;;5.50;99.90;;;;;;5024648;28;20049;-72
2022/04/10 07:53:34;;;;;;;2.05;0.88;;;5.60;99.90;;;;;;5024487;28;20044;-71
2022/04/10 07:56:00;;;;;;;4.68;1.13;;;5.50;99.90;;;;;;5027158;28;20076;-72
2022/04/10 07:58:26;;;;;;;14.18;1.50;;;5.50;99.90;;;;;;5026706;28;20065;-70
2022/04/10 08:00:52;;;;;;;4.40;1.48;;;5.50;99.90;;;;;;5025170;28;20042;-71
2022/04/10 08:03:18;;;;;;;1.83;0.75;;;5.50;99.90;;;;;;5024966;28;20096;-72
2022/04/10 08:05:43;;;;;;;2.53;0.98;;;5.40;99.90;;;;;;5027043;28;20025;-72
2022/04/10 08:08:12;;;;;;;3.88;1.38;;;5.50;99.90;;;;;;5026922;28;20057;-71
2022/04/10 08:10:39;;;;;;;4.53;0.90;;;5.70;99.90;;;;;;5028258;28;20052;-70
2022/04/10 08:13:05;;;;;;;14.60;1.73;;;5.80;99.90;;;;;;5038151;28;20048;-71
2022/04/10 08:15:31;;;;;;;3.22;0.90;;;5.90;99.90;;;;;;5047975;28;20029;-73
2022/04/10 08:17:57;;;;;;;6.05;1.00;;;6.20;99.90;;;;;;5048112;28;20056;-71
2022/04/10 08:20:23;;;;;;;11.35;1.75;;;6.30;99.90;;;;;;5032711;28;20030;-70
2022/04/10 08:22:50;;;;;;;7.32;1.83;;;6.40;99.90;;;;;;5004833;28;20065;-73
2022/04/10 08:25:18;;;;;;;4.32;1.25;;;6.40;99.90;;;;;;5017710;28;20079;-71
2022/04/10 08:27:44;;;;;;;3.20;1.20;;;6.40;99.90;;;;;;5012153;28;20046;-72
2022/04/10 08:30:12;;;;;;;3.25;0.88;;;6.50;99.90;;;;;;5007922;28;20026;-72
2022/04/10 08:32:42;;;;;;;2.40;1.05;;;6.70;99.90;;;;;;4997878;28;20085;-71
2022/04/10 08:35:08;;;;;;;3.97;1.73;;;6.80;99.90;;;;;;5014307;28;20061;-69
2022/04/10 08:37:35;;;;;;;5.38;1.92;;;6.90;99.90;;;;;;5026647;28;20402;-72
2022/04/10 08:40:02;;;;;;;3.45;1.05;;;6.80;99.90;;;;;;5016595;28;20045;-72
2022/04/10 08:42:28;;;;;;;4.78;0.52;;;6.70;99.90;;;;;;5020896;28;20080;-71
2022/04/10 08:44:57;;;;;;;1.65;0.47;;;6.50;99.90;;;;;;5026884;28;20076;-71
2022/04/10 08:47:24;;;;;;;0.30;0.22;;;6.30;99.90;;;;;;5021948;28;20040;-72
2022/04/10 08:49:51;;;;;;;0.82;0.50;;;5.70;99.90;;;;;;5018763;28;20037;-72
2022/04/10 08:52:18;;;;;;;3.80;0.32;;;5.00;99.90;;;;;;5007431;28;20474;-70
2022/04/10 08:54:45;;;;;;;2.53;0.90;;;4.50;99.90;;;;;;5024461;28;20032;-72
2022/04/10 08:57:12;;;;;;;3.42;0.73;;;4.10;99.90;;;;;;5024320;28;20058;-71
2022/04/10 08:59:38;;;;;;;1.17;0.57;;;4.00;99.90;;;;;;5026915;28;20108;-70
2022/04/10 09:02:04;;;;;;;3.75;1.38;;;4.00;99.90;;;;;;5020460;28;20041;-72
2022/04/10 09:04:31;;;;;;;1.98;0.95;;;3.90;99.90;;;;;;5024901;28;20042;-72
2022/04/10 09:07:07;;;;;;;0.88;0.70;;;3.90;99.90;;;;;;5026812;28;20056;-73
2022/04/10 09:09:34;;;;;;;3.67;1.23;;;4.10;99.90;;;;;;5006601;28;20064;-73
2022/04/10 09:12:00;;;;;;;4.93;1.08;;;4.50;99.90;;;;;;5026815;28;20049;-74
2022/04/10 09:14:33;;;;;;;2.63;0.85;;;4.90;99.90;;;;;;5027057;28;20033;-73
2022/04/10 09:17:19;;;;;;;3.20;1.08;;;5.40;99.90;;;;;;5027394;28;20069;-73
2022/04/10 09:19:52;;;;;;;4.05;1.33;;;6.00;99.90;;;;;;5025596;28;20037;-71
2022/04/10 09:22:29;;;;;;;2.38;1.33;;;6.60;99.90;;;;;;5027033;28;20018;-73
2022/04/10 09:25:07;;;;;;;5.22;1.17;;;6.90;99.90;;;;;;5019336;28;20049;-72
2022/04/10 09:27:34;;;;;;;6.32;1.50;;;7.00;99.90;;;;;;5025296;28;20045;-73
2022/04/10 09:30:00;;;;;;;6.00;1.20;;;7.10;99.90;;;;;;5005916;28;20042;-71
2022/04/10 09:32:52;;;;;;;4.63;1.45;;;7.10;99.90;;;;;;5021438;28;20410;-73
2022/04/10 09:35:23;;;;;;;4.13;0.82;;;6.90;99.90;;;;;;5020895;28;20041;-71
2022/04/10 09:37:51;;;;;;;5.82;1.73;;;6.80;99.90;;;;;;5005250;28;20030;-70
2022/04/10 09:40:21;;;;;;;3.33;1.02;;;7.00;99.90;;;;;;5004877;28;20023;-73
2022/04/10 09:42:55;;;;;;;6.88;1.40;;;7.30;99.90;;;;;;5006934;28;20030;-71
2022/04/10 09:45:33;;;;;;;3.05;0.88;;;7.60;99.90;;;;;;5015624;28;20030;-72
2022/04/10 09:48:21;;;;;;;2.53;0.90;;;7.80;99.90;;;;;;5025536;28;20506;-72
2022/04/10 09:50:49;;;;;;;7.75;1.00;;;8.10;99.90;;;;;;5020015;28;20070;-72
2022/04/10 09:53:15;;;;;;;1.05;0.90;;;8.50;99.90;;;;;;5016190;28;20032;-72
2022/04/10 09:55:42;;;;;;;4.57;1.20;;;8.60;99.90;;;;;;5024328;28;20053;-73
2022/04/10 09:58:13;;;;;;;5.57;1.15;;;8.40;99.90;;;;;;5022509;28;20026;-72
2022/04/10 10:00:52;;;;;;;11.60;1.55;;;8.10;99.90;;;;;;5038631;28;20022;-71
2022/04/10 10:03:20;;;;;;;2.08;0.85;;;7.70;99.90;;;;;;5016450;28;20152;-72
2022/04/10 10:05:46;;;;;;;3.67;0.77;;;7.40;99.90;;;;;;5026535;28;20458;-70
2022/04/10 10:08:12;;;;;;;3.30;1.25;;;7.30;99.90;;;;;;5025435;28;20073;-71
2022/04/10 10:10:40;;;;;;;2.90;0.40;;;7.40;99.90;;;;;;5029472;28;20042;-73
2022/04/10 10:13:07;;;;;;;3.70;1.23;;;7.70;99.90;;;;;;5026511;28;20079;-72
2022/04/10 10:15:36;;;;;;;1.88;1.08;;;7.80;99.90;;;;;;5024834;28;20045;-71
2022/04/10 10:18:05;;;;;;;2.72;1.33;;;7.90;99.90;;;;;;5024676;28;20057;-72
2022/04/10 10:20:32;;;;;;;6.18;1.08;;;7.70;99.90;;;;;;5008158;28;20045;-69
2022/04/10 10:23:04;;;;;;;4.18;0.60;;;7.50;99.90;;;;;;5025244;28;20030;-70
2022/04/10 10:25:37;;;;;;;8.93;0.85;;;7.20;99.90;;;;;;5007021;28;20082;-71
2022/04/10 10:28:34;;;;;;;9.07;0.95;;;7.00;99.90;;;;;;5025925;28;20042;-70
2022/04/10 10:31:30;;;;;;;1.48;0.85;;;6.80;99.90;;;;;;5025491;28;20061;-71
2022/04/10 10:33:58;;;;;;;1.98;0.68;;;6.70;99.90;;;;;;5026107;28;20065;-71
2022/04/10 10:36:26;;;;;;;1.13;0.30;;;6.60;99.90;;;;;;5020499;28;20036;-73
2022/04/10 10:38:56;;;;;;;3.55;1.00;;;6.50;99.90;;;;;;5023191;28;20041;-72
2022/04/10 10:41:22;;;;;;;3.58;0.57;;;6.60;99.90;;;;;;5005525;28;20172;-73
2022/04/10 10:43:49;;;;;;;0.88;0.47;;;6.50;99.90;;;;;;5005611;28;20042;-71
2022/04/10 10:46:22;;;;;;;4.95;0.85;;;6.60;99.90;;;;;;5005643;28;20038;-71
2022/04/10 10:48:50;;;;;;;0.17;0.17;;;6.80;99.90;;;;;;5015611;28;20073;-72
2022/04/10 10:51:16;;;;;;;2.50;0.60;;;7.20;99.90;;;;;;5020080;28;20216;-70
2022/04/10 10:53:57;;;;;;;2.60;0.80;;;7.60;99.90;;;;;;5023192;28;20567;-72
2022/04/10 10:56:31;;;;;;;1.00;0.43;;;7.80;99.90;;;;;;5024410;28;20088;-70
2022/04/10 10:59:15;;;;;;;;;;;8.00;99.90;;;;;;5025116;28;20026;-73
2022/04/10 11:02:03;;;;;;;4.03;0.68;;;8.20;99.90;;;;;;5024970;28;19941;-72
2022/04/10 11:04:38;;;;;;;6.97;0.98;;;7.50;99.90;;;;;;5023934;28;20052;-70
2022/04/10 11:07:19;;;;;;;5.15;0.95;;;6.70;99.90;;;;;;5023959;28;20038;-71
2022/04/10 11:10:09;;;;;;;5.28;1.13;;;6.20;99.90;;;;;;5024605;28;20071;-71
2022/04/10 11:12:53;;;;;;;9.73;0.90;;;6.00;99.90;;;;;;5005575;28;20407;-74
2022/04/10 11:15:22;;;;;;;2.50;1.20;;;6.10;99.90;;;;;;5015547;28;20026;-72
2022/04/10 11:17:50;;;;;;;7.38;0.90;;;6.30;99.90;;;;;;5024698;28;20037;-72
2022/04/10 11:20:18;;;;;;;3.50;0.90;;;6.70;99.90;;;;;;5024610;28;20026;-72
2022/04/10 11:22:52;;;;;;;1.58;0.57;;;7.10;99.90;;;;;;5021128;28;20065;-71
2022/04/10 11:25:28;;;;;;;9.63;1.10;;;7.60;99.90;;;;;;5004893;28;20050;-72
2022/04/10 11:27:56;;;;;;;2.45;0.60;;;8.20;99.90;;;;;;4979591;28;20054;-72
2022/04/10 11:30:34;;;;;;;1.15;0.38;;;8.60;99.90;;;;;;5017806;28;20030;-74
2022/04/10 11:33:03;;;;;;;1.00;0.40;;;9.10;99.90;;;;;;5024970;28;20089;-73
2022/04/10 11:35:32;;;;;;;16.33;1.63;;;9.40;99.90;;;;;;5024463;28;20034;-72
2022/04/10 11:38:01;;;;;;;3.08;0.88;;;9.80;99.90;;;;;;5023264;28;20088;-73
2022/04/10 11:40:28;;;;;;;1.02;0.68;;;9.70;99.90;;;;;;4995120;28;20033;-73
2022/04/10 11:42:57;;;;;;;2.05;0.98;;;10.00;99.90;;;;;;5013203;28;20045;-72
2022/04/10 11:45:26;;;;;;;8.52;1.35;;;10.30;99.90;;;;;;5004438;28;20045;-73
2022/04/10 11:47:52;;;;;;;1.85;0.60;;;10.40;99.90;;;;;;5016933;28;20037;-74
2022/04/10 11:50:22;;;;;;;4.10;0.80;;;10.30;99.90;;;;;;5006584;28;20383;-72
2022/04/10 11:53:08;;;;;;;4.13;1.10;;;10.00;99.90;;;;;;5022456;28;20085;-74
2022/04/10 11:55:36;;;;;;;1.60;0.63;;;9.80;99.90;;;;;;5023212;28;20379;-71
2022/04/10 11:58:17;;;;;;;9.85;1.45;;;9.50;99.90;;;;;;5015493;28;20030;-72
2022/04/10 12:00:57;;;;;;;5.18;1.00;;;9.30;99.90;;;;;;4987044;28;20402;-71
2022/04/10 12:03:27;;;;;;;9.40;1.30;;;8.90;99.90;;;;;;5003923;28;20030;-72
2022/04/10 12:05:54;;;;;;;1.23;0.60;;;8.30;99.90;;;;;;5005099;28;20029;-71
2022/04/10 12:08:20;;;;;;;0.80;0.20;;;8.20;99.90;;;;;;5013720;28;20050;-71
2022/04/10 12:11:00;;;;;;;2.65;1.17;;;8.20;99.90;;;;;;5019706;28;20030;-71
2022/04/10 12:13:30;;;;;;;1.17;0.63;;;8.70;99.90;;;;;;5023036;28;20030;-71
2022/04/10 12:16:23;;;;;;;2.90;0.35;;;9.10;99.90;;;;;;5013411;28;20064;-72
2022/04/10 12:18:51;;;;;;;0.90;0.30;;;9.80;99.90;;;;;;5024592;28;20045;-71
2022/04/10 12:21:17;;;;;;;2.47;0.60;;;10.00;99.90;;;;;;5027064;28;20033;-72
2022/04/10 12:23:45;;;;;;;5.07;0.90;;;10.00;99.90;;;;;;5027188;28;20026;-74
2022/04/10 12:26:12;;;;;;;5.30;1.13;;;10.00;99.90;;;;;;5027471;28;20018;-73
2022/04/10 12:28:39;;;;;;;3.83;0.93;;;10.30;99.90;;;;;;5021555;28;20042;-73
2022/04/10 12:31:07;;;;;;;1.98;0.80;;;10.70;99.90;;;;;;5013849;28;20042;-73
2022/04/10 12:33:34;;;;;;;5.10;0.57;;;11.20;99.90;;;;;;5027181;28;20026;-73
2022/04/10 12:36:19;;;;;;;2.97;0.80;;;11.50;99.90;;;;;;5009448;28;20053;-71
2022/04/10 12:38:45;;;;;;;5.03;0.88;;;11.50;99.90;;;;;;5005489;28;20069;-73
2022/04/10 12:41:12;;;;;;;7.13;0.70;;;11.70;99.90;;;;;;5015974;28;20026;-74
2022/04/10 12:43:37;;;;;;;9.43;1.73;;;11.70;99.90;;;;;;5007213;28;20025;-71
2022/04/10 12:46:12;;;;;;;2.55;0.88;;;11.60;99.90;;;;;;5008404;28;20030;-72
2022/04/10 12:48:41;;;;;;;3.47;0.73;;;11.70;99.90;;;;;;5019889;28;20057;-74
2022/04/10 12:51:11;;;;;;;3.33;0.98;;;12.00;99.90;;;;;;5018818;28;20617;-74
2022/04/10 12:53:38;;;;;;;6.43;0.93;;;12.00;99.90;;;;;;5026851;28;20102;-73
2022/04/10 12:56:28;;;;;;;6.63;0.75;;;12.20;99.90;;;;;;5025563;28;20036;-75
2022/04/10 12:58:54;;;;;;;2.88;1.15;;;12.30;99.90;;;;;;5006186;28;20085;-74
2022/04/10 13:01:27;;;;;;;2.72;0.80;;;12.70;99.90;;;;;;5006768;28;20022;-75
2022/04/10 13:03:53;;;;;;;4.13;0.40;;;12.70;99.90;;;;;;4989336;28;20061;-75